Time;durP1;ratioP1;P1;durP2;ratioP2;P2;SDS_P1;SDS_P2;PMS_P1;PMS_P2;Temp;Humidity;BMP_temperature;BMP_pressure;BME280_temperature;BME280_humidity;BME280_pressure;Samples;Min_cycle;Max_cycle;Signal;HPM_P1;HPM_P2
2024/01/09 00:01:20;;;;;;;11.30;2.08;;;;;;;;;;4149066;28;20121;-82
2024/01/09 00:03:31;;;;;;;2.78;1.70;;;;;;;;;;4149182;28;20050;-82
2024/01/09 00:05:34;;;;;;;2.97;1.52;;;;;;;;;;4147732;28;20066;-82
2024/01/09 00:07:44;;;;;;;4.03;1.65;;;;;;;;;;4149069;28;20411;-82
2024/01/09 00:09:48;;;;;;;6.22;1.98;;;;;;;;;;4149668;28;20044;-82
2024/01/09 00:11:52;;;;;;;4.57;1.77;;;;;;;;;;4149653;28;20042;-82
2024/01/09 00:13:53;;;;;;;3.42;1.98;;;;;;;;;;4149350;28;20058;-82
2024/01/09 00:16:13;;;;;;;4.32;1.75;;;;;;;;;;4149262;28;20061;-82
2024/01/09 00:18:26;;;;;;;2.45;1.15;;;;;;;;;;4148837;28;20050;-82
2024/01/09 00:20:33;;;;;;;4.20;1.70;;;;;;;;;;4151438;28;20042;-81
2024/01/09 00:22:46;;;;;;;3.15;1.40;;;;;;;;;;4153972;28;20101;-83
2024/01/09 00:24:47;;;;;;;4.85;1.67;;;;;;;;;;4138280;28;20066;-82
2024/01/09 00:26:55;;;;;;;4.72;1.55;;;;;;;;;;4138227;28;20074;-82
2024/01/09 00:28:57;;;;;;;2.78;1.30;;;;;;;;;;4137632;28;20046;-82
2024/01/09 00:31:12;;;;;;;4.28;1.83;;;;;;;;;;4153083;28;20089;-82
2024/01/09 00:33:16;;;;;;;2.05;1.05;;;;;;;;;;4137770;28;20125;-83
2024/01/09 00:35:25;;;;;;;5.18;1.80;;;;;;;;;;4154251;28;20125;-82
2024/01/09 00:37:40;;;;;;;4.00;1.42;;;;;;;;;;4154813;28;20058;-82
2024/01/09 00:39:42;;;;;;;5.75;1.58;;;;;;;;;;4152754;28;20038;-82
2024/01/09 00:41:45;;;;;;;3.50;1.38;;;;;;;;;;4154288;28;20043;-83
2024/01/09 00:44:04;;;;;;;4.05;1.80;;;;;;;;;;4154667;28;20034;-82
2024/01/09 00:46:12;;;;;;;3.72;1.92;;;;;;;;;;4155329;28;20043;-82
2024/01/09 00:48:15;;;;;;;3.33;1.60;;;;;;;;;;4155329;28;20065;-82
2024/01/09 00:50:24;;;;;;;4.93;1.50;;;;;;;;;;4155004;28;20081;-82
2024/01/09 00:52:38;;;;;;;4.60;1.48;;;;;;;;;;4154709;28;20050;-82
2024/01/09 00:54:47;;;;;;;4.55;1.65;;;;;;;;;;4155087;28;20043;-82
2024/01/09 00:57:10;;;;;;;4.15;1.50;;;;;;;;;;4154627;28;20050;-82
2024/01/09 00:59:21;;;;;;;4.30;1.58;;;;;;;;;;4154497;28;20042;-82
2024/01/09 01:01:36;;;;;;;5.43;2.05;;;;;;;;;;4154314;28;20042;-82
2024/01/09 01:03:46;;;;;;;6.60;1.70;;;;;;;;;;4154994;28;20078;-82
2024/01/09 01:06:07;;;;;;;3.92;1.92;;;;;;;;;;4155599;28;20038;-83
2024/01/09 01:08:16;;;;;;;4.20;1.45;;;;;;;;;;4143003;28;20051;-82
2024/01/09 01:10:25;;;;;;;3.25;1.40;;;;;;;;;;4155099;28;20046;-82
2024/01/09 01:13:00;;;;;;;5.45;1.70;;;;;;;;;;4155552;28;20038;-82
2024/01/09 01:15:24;;;;;;;6.22;1.90;;;;;;;;;;4154378;28;20042;-83
2024/01/09 01:17:33;;;;;;;3.38;1.30;;;;;;;;;;4154644;28;20042;-82
2024/01/09 01:20:05;;;;;;;6.55;2.22;;;;;;;;;;4155277;28;20045;-82
2024/01/09 01:22:09;;;;;;;3.55;1.90;;;;;;;;;;4155279;28;20054;-82
2024/01/09 01:24:10;;;;;;;6.07;1.92;;;-2.60;99.90;;;;;;4154503;28;20114;-82
2024/01/09 01:26:17;;;;;;;3.90;1.88;;;-2.60;99.90;;;;;;4155124;28;20046;-82
2024/01/09 01:28:28;;;;;;;4.35;1.98;;;-2.00;99.90;;;;;;4137513;28;20043;-83
2024/01/09 01:30:30;;;;;;;3.20;1.17;;;-3.20;99.90;;;;;;4154363;28;20026;-83
2024/01/09 01:33:18;;;;;;;4.28;1.73;;;-3.00;99.90;;;;;;4152138;28;20047;-83
2024/01/09 01:35:27;;;;;;;4.63;1.92;;;-4.50;99.90;;;;;;4152287;28;20046;-82
2024/01/09 01:37:37;;;;;;;5.95;1.83;;;-3.10;99.90;;;;;;4152593;28;20101;-83
2024/01/09 01:39:49;;;;;;;8.05;2.50;;;-3.30;99.90;;;;;;4152238;28;20105;-82
2024/01/09 01:42:22;;;;;;;4.18;1.58;;;-2.60;99.90;;;;;;4152319;28;20066;-82
2024/01/09 01:44:27;;;;;;;4.65;1.70;;;-3.30;99.90;;;;;;4135056;28;20081;-82
2024/01/09 01:46:38;;;;;;;4.15;1.33;;;;;;;;;;4153231;28;20046;-82
2024/01/09 01:48:42;;;;;;;3.47;1.75;;;;;;;;;;4152249;28;20046;-82
2024/01/09 01:50:45;;;;;;;2.55;1.30;;;;;;;;;;4152068;28;20078;-81
2024/01/09 01:53:03;;;;;;;3.58;1.23;;;;;;;;;;4152294;28;20065;-82
2024/01/09 01:55:19;;;;;;;5.47;1.55;;;;;;;;;;4140021;28;20042;-82
2024/01/09 01:57:29;;;;;;;3.50;1.65;;;;;;;;;;4152781;28;20034;-83
2024/01/09 01:59:40;;;;;;;7.68;1.67;;;;;;;;;;4152663;28;20042;-82
2024/01/09 02:01:45;;;;;;;6.43;1.90;;;;;;;;;;4149166;28;20045;-83
2024/01/09 02:03:54;;;;;;;4.10;1.95;;;;;;;;;;4140202;28;20046;-82
2024/01/09 02:06:12;;;;;;;5.13;1.98;;;;;;;;;;4152992;28;20057;-83
2024/01/09 02:08:26;;;;;;;5.03;2.30;;;;;;;;;;4152500;28;20056;-83
2024/01/09 02:10:32;;;;;;;5.70;1.67;;;;;;;;;;4152658;28;20101;-83
2024/01/09 02:12:45;;;;;;;2.92;1.27;;;;;;;;;;4152260;28;20080;-83
2024/01/09 02:14:51;;;;;;;2.40;1.23;;;;;;;;;;4152137;28;20022;-83
2024/01/09 02:16:55;;;;;;;2.50;1.38;;;;;;;;;;4152556;28;20084;-83
2024/01/09 02:19:06;;;;;;;3.90;1.58;;;;;;;;;;4152184;28;20056;-83
2024/01/09 02:21:16;;;;;;;4.45;2.55;;;;;;;;;;4151650;28;20058;-83
2024/01/09 02:23:30;;;;;;;2.63;1.40;;;;;;;;;;4151982;28;20052;-83
2024/01/09 02:25:32;;;;;;;3.88;1.52;;;;;;;;;;4151254;28;20065;-83
2024/01/09 02:27:39;;;;;;;4.88;1.73;;;;;;;;;;4152211;28;20057;-83
2024/01/09 02:30:01;;;;;;;3.92;1.88;;;;;;;;;;4151896;28;20066;-82
2024/01/09 02:32:23;;;;;;;2.72;1.27;;;;;;;;;;4151826;28;20077;-83
2024/01/09 02:34:43;;;;;;;3.08;1.58;;;;;;;;;;4152333;28;20050;-83
2024/01/09 02:36:47;;;;;;;4.07;1.55;;;;;;;;;;4151556;28;20042;-83
2024/01/09 02:38:49;;;;;;;4.95;1.85;;;;;;;;;;4151226;28;20078;-83
2024/01/09 02:40:53;;;;;;;6.28;1.80;;;;;;;;;;4151705;28;20046;-83
2024/01/09 02:43:16;;;;;;;3.15;1.60;;;;;;;;;;4151073;28;20107;-82
2024/01/09 02:45:28;;;;;;;4.55;1.80;;;-3.40;99.90;;;;;;4151008;28;20106;-82
2024/01/09 02:47:40;;;;;;;3.70;1.40;;;-3.50;99.90;;;;;;4151544;28;20072;-82
2024/01/09 02:49:57;;;;;;;3.72;1.30;;;-3.40;99.90;;;;;;4150106;28;20121;-81
2024/01/09 02:51:59;;;;;;;3.83;1.33;;;-3.50;99.90;;;;;;4150992;28;20046;-83
2024/01/09 02:54:25;;;;;;;5.03;1.58;;;-4.00;99.90;;;;;;4151889;28;20045;-83
2024/01/09 02:56:37;;;;;;;3.67;1.42;;;-2.20;99.90;;;;;;4151828;28;20046;-82
2024/01/09 02:58:54;;;;;;;3.92;1.35;;;-3.50;99.90;;;;;;4151811;28;20093;-82
2024/01/09 03:01:04;;;;;;;3.67;1.48;;;-3.60;99.90;;;;;;4135138;28;20043;-83
2024/01/09 03:03:25;;;;;;;4.05;1.58;;;-3.70;99.90;;;;;;4134739;28;20039;-82
2024/01/09 03:05:31;;;;;;;2.95;1.20;;;-3.70;99.90;;;;;;4151801;28;20053;-82
2024/01/09 03:10:20;;;;;;;6.25;1.60;;;-3.60;99.90;;;;;;4150362;28;20046;-82
2024/01/09 03:12:21;;;;;;;2.30;1.17;;;-4.30;99.90;;;;;;4137873;28;20518;-82
2024/01/09 03:14:23;;;;;;;5.47;1.60;;;-4.20;99.90;;;;;;4154415;28;20026;-82
2024/01/09 03:16:30;;;;;;;3.30;1.40;;;-4.00;99.90;;;;;;4153935;28;20023;-83
2024/01/09 03:18:35;;;;;;;3.40;1.65;;;-3.10;99.90;;;;;;4137334;28;20110;-83
2024/01/09 03:20:42;;;;;;;3.92;1.77;;;-3.70;99.90;;;;;;4152842;28;20053;-83
2024/01/09 03:23:20;;;;;;;3.70;1.60;;;-3.20;99.90;;;;;;4118426;29;20047;-83
2024/01/09 03:25:34;;;;;;;2.80;1.30;;;-4.10;99.90;;;;;;4134356;28;20070;-82
2024/01/09 03:28:28;;;;;;;5.72;2.00;;;-2.60;99.90;;;;;;4150878;28;20050;-82
2024/01/09 03:31:33;;;;;;;3.25;1.17;;;-3.70;99.90;;;;;;4134118;28;20062;-82
2024/01/09 03:34:29;;;;;;;5.22;2.38;;;-3.70;99.90;;;;;;4150839;28;20046;-82
2024/01/09 03:36:39;;;;;;;4.78;1.63;;;-3.80;99.90;;;;;;4150187;28;20110;-82
2024/01/09 03:38:43;;;;;;;6.15;1.60;;;-3.60;99.90;;;;;;4150691;28;20042;-82
2024/01/09 03:40:47;;;;;;;4.18;1.70;;;-3.80;99.90;;;;;;4150239;28;20078;-82
2024/01/09 03:42:56;;;;;;;7.47;1.55;;;-3.00;99.90;;;;;;4151194;28;20042;-82
2024/01/09 03:44:58;;;;;;;3.55;1.90;;;-3.80;99.90;;;;;;4151007;28;20042;-82
2024/01/09 03:46:59;;;;;;;5.78;1.80;;;-4.90;99.90;;;;;;4150237;28;20035;-82
2024/01/09 03:49:00;;;;;;;5.65;1.60;;;-4.40;99.90;;;;;;4117735;29;20049;-82
2024/01/09 03:51:07;;;;;;;3.58;1.20;;;-4.10;99.90;;;;;;4149542;28;20073;-82
2024/01/09 03:53:10;;;;;;;3.00;1.42;;;-4.20;99.90;;;;;;4133611;28;20090;-82
2024/01/09 03:55:16;;;;;;;3.83;1.70;;;-2.40;99.90;;;;;;4149489;28;20042;-82
2024/01/09 03:57:24;;;;;;;5.57;1.98;;;-1.90;99.90;;;;;;4150226;28;20061;-82
2024/01/09 03:59:32;;;;;;;3.95;1.73;;;-3.20;99.90;;;;;;4150307;28;20042;-82
2024/01/09 04:01:34;;;;;;;4.93;1.87;;;-2.70;99.90;;;;;;4132402;28;20057;-82
2024/01/09 04:03:40;;;;;;;4.22;1.75;;;-3.70;99.90;;;;;;4149807;28;20050;-82
2024/01/09 04:06:02;;;;;;;3.75;1.58;;;-3.80;99.90;;;;;;4150971;28;20037;-82
2024/01/09 04:08:06;;;;;;;5.25;1.40;;;-3.00;99.90;;;;;;4149777;28;20042;-80
2024/01/09 04:10:15;;;;;;;2.50;1.30;;;-4.00;99.90;;;;;;4149528;28;20038;-83
2024/01/09 04:12:26;;;;;;;4.45;1.42;;;-2.90;99.90;;;;;;4149576;28;20043;-83
2024/01/09 04:14:39;;;;;;;3.30;1.60;;;-4.70;99.90;;;;;;4149945;28;20046;-83
2024/01/09 04:16:48;;;;;;;3.25;1.42;;;-2.70;99.90;;;;;;4150305;28;20070;-83
2024/01/09 04:19:05;;;;;;;3.42;1.55;;;-4.00;99.90;;;;;;4150426;28;20046;-82
2024/01/09 04:21:18;;;;;;;4.57;1.77;;;-4.00;99.90;;;;;;4150879;28;20038;-81
2024/01/09 04:23:41;;;;;;;2.10;1.63;;;-4.00;99.90;;;;;;4150349;28;20042;-82
2024/01/09 04:25:44;;;;;;;3.58;1.48;;;-4.10;99.90;;;;;;4118263;29;20424;-82
2024/01/09 04:27:58;;;;;;;2.85;1.25;;;-3.00;99.90;;;;;;4118093;28;20050;-82
2024/01/09 04:30:06;;;;;;;5.13;1.80;;;-4.70;99.90;;;;;;4118334;28;20043;-82
2024/01/09 04:32:17;;;;;;;9.13;1.40;;;-4.80;99.90;;;;;;4117800;28;20043;-82
2024/01/09 04:34:45;;;;;;;5.40;1.65;;;-3.40;99.90;;;;;;4133304;28;20081;-82
2024/01/09 04:36:53;;;;;;;4.43;1.83;;;-3.80;99.90;;;;;;4113770;28;20047;-82
2024/01/09 04:39:36;;;;;;;4.95;1.92;;;-4.30;99.90;;;;;;4102753;29;20095;-82
2024/01/09 04:41:59;;;;;;;4.90;1.42;;;-4.30;99.90;;;;;;4114587;29;20039;-82
2024/01/09 04:44:13;;;;;;;4.25;2.28;;;-5.10;99.90;;;;;;4119234;29;20050;-82
2024/01/09 04:46:19;;;;;;;2.90;1.55;;;-3.00;99.90;;;;;;4118089;29;20069;-81
2024/01/09 04:48:39;;;;;;;3.75;2.03;;;-4.10;99.90;;;;;;4119022;28;20103;-81
2024/01/09 04:50:41;;;;;;;2.53;1.20;;;-4.30;99.90;;;;;;4119043;28;20045;-81
2024/01/09 04:52:47;;;;;;;6.03;1.73;;;-4.40;99.90;;;;;;4118135;29;20058;-81
2024/01/09 04:54:51;;;;;;;6.22;2.17;;;-5.00;99.90;;;;;;4118549;28;20040;-81
2024/01/09 04:57:00;;;;;;;5.40;1.65;;;-4.50;99.90;;;;;;4118092;29;20087;-81
2024/01/09 04:59:34;;;;;;;3.72;1.80;;;-4.30;99.90;;;;;;4118326;29;20051;-82
2024/01/09 05:04:51;;;;;;;5.05;1.90;;;-5.30;99.90;;;;;;4118854;29;20038;-80
2024/01/09 05:07:10;;;;;;;4.50;1.85;;;-3.10;99.90;;;;;;4119149;28;20039;-80
2024/01/09 05:09:24;;;;;;;3.88;1.92;;;-4.50;99.90;;;;;;4121339;28;20039;-79
2024/01/09 05:11:33;;;;;;;6.53;1.90;;;-4.40;99.90;;;;;;4121231;28;20074;-79
2024/01/09 05:16:17;;;;;;;6.55;2.10;;;-4.40;99.90;;;;;;4199182;23;19905;-78
2024/01/09 05:18:28;;;;;;;4.93;1.98;;;-3.70;99.90;;;;;;4155409;28;20049;-79
2024/01/09 05:20:31;;;;;;;5.38;1.80;;;-4.50;99.90;;;;;;4155224;28;20034;-79
2024/01/09 05:22:35;;;;;;;3.80;1.77;;;-3.50;99.90;;;;;;4155821;28;20567;-79
2024/01/09 05:24:49;;;;;;;5.22;2.10;;;-4.50;99.90;;;;;;4138877;28;20081;-79
2024/01/09 05:30:09;;;;;;;6.68;2.15;;;-4.60;99.90;;;;;;4137524;28;20046;-78
2024/01/09 05:32:19;;;;;;;4.18;1.83;;;-4.60;99.90;;;;;;4119974;28;20055;-79
2024/01/09 05:34:23;;;;;;;6.50;2.05;;;-4.60;99.90;;;;;;4120129;29;20051;-79
2024/01/09 05:36:52;;;;;;;10.63;3.20;;;-4.60;99.90;;;;;;4120497;29;20051;-80
2024/01/09 05:39:02;;;;;;;3.47;2.05;;;-4.60;99.90;;;;;;4136936;28;20055;-81
2024/01/09 05:41:17;;;;;;;6.22;2.28;;;-4.20;99.90;;;;;;4120771;29;20050;-81
2024/01/09 05:43:36;;;;;;;3.47;1.90;;;-4.70;99.90;;;;;;4120514;29;20107;-80
2024/01/09 05:45:56;;;;;;;7.32;2.33;;;-5.10;99.90;;;;;;4105225;29;20054;-80
2024/01/09 05:48:08;;;;;;;5.07;2.22;;;-5.20;99.90;;;;;;4138033;28;20098;-80
2024/01/09 05:50:31;;;;;;;5.93;1.95;;;-4.90;99.90;;;;;;4140062;28;20051;-80
2024/01/09 05:52:39;;;;;;;3.75;2.13;;;-5.20;99.90;;;;;;4583929;23;20062;-79
2024/01/09 05:57:56;;;;;;;5.47;2.28;;;-4.70;99.90;;;;;;4276716;22;20288;-79
2024/01/09 06:00:16;;;;;;;4.07;2.10;;;-3.70;99.90;;;;;;4188177;28;20651;-79
2024/01/09 06:05:33;;;;;;;7.07;2.70;;;-4.80;99.90;;;;;;4188373;28;20071;-79
2024/01/09 06:07:41;;;;;;;5.30;2.10;;;-4.70;99.90;;;;;;4171266;28;20038;-80
2024/01/09 06:10:11;;;;;;;5.97;2.03;;;-3.70;99.90;;;;;;4170424;28;20129;-80
2024/01/09 06:12:20;;;;;;;3.63;1.85;;;-4.80;99.90;;;;;;4168539;28;20049;-80
2024/01/09 06:17:49;;;;;;;5.38;2.63;;;-4.90;99.90;;;;;;4168377;28;20098;-80
2024/01/09 06:20:10;;;;;;;;;;;-4.20;99.90;;;;;;4185048;28;20045;-80
2024/01/09 06:22:18;;;;;;;3.33;1.75;;;-4.90;99.90;;;;;;4186702;28;19925;-80
2024/01/09 06:24:34;;;;;;;5.17;2.00;;;-5.80;99.90;;;;;;4186106;28;20054;-80
2024/01/09 06:26:35;;;;;;;4.20;1.98;;;-5.00;99.90;;;;;;4168715;28;20054;-80
2024/01/09 06:28:52;;;;;;;6.70;2.50;;;-4.40;99.90;;;;;;4168619;28;20046;-80
2024/01/09 06:31:09;;;;;;;5.05;2.33;;;-5.50;99.90;;;;;;4168513;28;20056;-80
2024/01/09 06:33:42;;;;;;;5.55;2.30;;;-3.90;99.90;;;;;;4152134;28;20058;-80
2024/01/09 06:38:55;;;;;;;9.32;2.20;;;-4.80;99.90;;;;;;4185273;28;20479;-80
2024/01/09 06:41:04;;;;;;;4.95;2.25;;;-5.70;99.90;;;;;;4168156;28;20045;-80
2024/01/09 06:43:22;;;;;;;12.38;2.85;;;-5.00;99.90;;;;;;4167928;28;20037;-80
2024/01/09 06:45:43;;;;;;;7.05;2.90;;;-3.90;99.90;;;;;;4168067;28;20097;-80
2024/01/09 06:47:55;;;;;;;6.50;3.03;;;-5.90;99.90;;;;;;4152140;28;20053;-80
2024/01/09 06:49:56;;;;;;;6.50;2.60;;;-5.90;99.90;;;;;;4151954;28;20042;-80
2024/01/09 06:51:59;;;;;;;7.47;2.58;;;-4.10;99.90;;;;;;4184157;28;20049;-80
2024/01/09 06:54:12;;;;;;;6.65;2.88;;;-4.40;99.90;;;;;;4184845;28;20045;-80
2024/01/09 06:56:20;;;;;;;3.67;2.45;;;-3.90;99.90;;;;;;4146020;28;20046;-80
2024/01/09 06:58:21;;;;;;;6.60;3.00;;;-4.60;99.90;;;;;;4157637;28;20089;-80
2024/01/09 07:00:24;;;;;;;11.13;2.65;;;-5.50;99.90;;;;;;4168018;28;20084;-80
2024/01/09 07:02:27;;;;;;;7.32;2.45;;;-5.00;99.90;;;;;;4167684;28;20139;-80
2024/01/09 07:04:30;;;;;;;3.53;2.28;;;-4.90;99.90;;;;;;4167687;28;20037;-80
2024/01/09 07:06:32;;;;;;;3.60;1.83;;;-4.50;99.90;;;;;;4168528;28;20053;-80
2024/01/09 07:08:35;;;;;;;5.90;2.35;;;-4.60;99.90;;;;;;4168585;28;20068;-80
2024/01/09 07:10:37;;;;;;;8.07;2.65;;;-4.10;99.90;;;;;;4168075;28;20046;-80
2024/01/09 07:12:39;;;;;;;7.53;2.45;;;-4.40;99.90;;;;;;4167024;28;20073;-80
2024/01/09 07:14:41;;;;;;;4.07;2.03;;;-5.10;99.90;;;;;;4167374;28;20049;-80
2024/01/09 07:16:51;;;;;;;4.00;1.80;;;-5.10;99.90;;;;;;4154072;28;20050;-80
2024/01/09 07:19:06;;;;;;;5.18;2.70;;;-5.70;99.90;;;;;;4181186;28;20041;-80
2024/01/09 07:21:27;;;;;;;5.00;1.70;;;-5.10;99.90;;;;;;4184028;28;20041;-80
2024/01/09 07:23:29;;;;;;;6.18;2.30;;;-4.20;99.90;;;;;;4182930;28;20039;-80
2024/01/09 07:25:36;;;;;;;7.35;2.40;;;-5.10;99.90;;;;;;4183130;28;20089;-80
2024/01/09 07:28:02;;;;;;;4.70;2.50;;;-5.20;99.90;;;;;;4183657;28;20045;-80
2024/01/09 07:30:07;;;;;;;4.35;1.65;;;-6.20;99.90;;;;;;4166565;28;20037;-80
2024/01/09 07:32:15;;;;;;;7.57;3.33;;;-5.00;99.90;;;;;;4183241;28;20041;-80
2024/01/09 07:34:23;;;;;;;6.60;2.25;;;-5.10;99.90;;;;;;4183467;28;20042;-80
2024/01/09 07:36:30;;;;;;;4.82;2.00;;;-5.00;99.90;;;;;;4152174;28;20114;-81
2024/01/09 07:38:42;;;;;;;5.47;2.00;;;-5.10;99.90;;;;;;4150107;28;20058;-80
2024/01/09 07:40:51;;;;;;;4.85;1.92;;;-4.80;99.90;;;;;;4150845;28;20061;-80
2024/01/09 07:42:58;;;;;;;4.80;1.80;;;-5.00;99.90;;;;;;4167648;28;20101;-80
2024/01/09 07:45:21;;;;;;;4.53;1.75;;;-4.90;99.90;;;;;;4167412;28;20041;-80
2024/01/09 07:47:27;;;;;;;4.43;2.50;;;-4.90;99.90;;;;;;4150133;28;20077;-80
2024/01/09 07:52:14;;;;;;;10.82;2.20;;;-5.10;99.90;;;;;;4150429;28;20078;-80
2024/01/09 07:54:15;;;;;;;5.90;2.10;;;-4.30;99.90;;;;;;4150225;28;20074;-80
2024/01/09 07:56:32;;;;;;;4.10;1.98;;;-4.90;99.90;;;;;;4134536;28;20047;-80
2024/01/09 07:58:34;;;;;;;5.95;2.08;;;-5.10;99.90;;;;;;4153106;28;20062;-80
2024/01/09 08:00:53;;;;;;;4.93;2.00;;;-4.30;99.90;;;;;;4164748;28;20054;-80
2024/01/09 08:02:56;;;;;;;;;;;-4.40;99.90;;;;;;4168937;28;20053;-80
2024/01/09 08:05:06;;;;;;;5.30;2.00;;;-5.90;99.90;;;;;;4167286;28;19948;-81
2024/01/09 08:07:08;;;;;;;6.65;2.55;;;-6.00;99.90;;;;;;4166854;28;20030;-81
2024/01/09 08:09:10;;;;;;;11.27;2.45;;;-5.00;99.90;;;;;;4183865;28;20045;-81
2024/01/09 08:11:22;;;;;;;4.63;2.30;;;-5.00;99.90;;;;;;4183828;28;20036;-81
2024/01/09 08:13:28;;;;;;;5.82;2.25;;;-6.00;99.90;;;;;;4183980;28;20042;-81
2024/01/09 08:15:38;;;;;;;3.58;2.38;;;-4.80;99.90;;;;;;4184094;28;20053;-81
2024/01/09 08:17:47;;;;;;;6.43;1.90;;;-5.80;99.90;;;;;;4167063;28;20045;-81
2024/01/09 08:19:57;;;;;;;5.45;2.10;;;-5.10;99.90;;;;;;4183698;28;20097;-81
2024/01/09 08:22:13;;;;;;;7.05;2.30;;;-4.40;99.90;;;;;;4182104;28;20044;-81
2024/01/09 08:24:20;;;;;;;7.65;2.38;;;-4.50;99.90;;;;;;4178523;28;20022;-81
2024/01/09 08:26:23;;;;;;;4.63;2.00;;;-4.00;99.90;;;;;;4167533;28;20052;-80
2024/01/09 08:28:41;;;;;;;6.15;2.45;;;-3.90;99.90;;;;;;4166984;28;20041;-81
2024/01/09 08:30:44;;;;;;;4.32;1.90;;;-3.90;99.90;;;;;;4167483;28;20474;-81
2024/01/09 08:33:08;;;;;;;5.13;2.15;;;-3.30;99.90;;;;;;4167137;28;20098;-81
2024/01/09 08:35:19;;;;;;;5.95;1.95;;;-4.70;99.90;;;;;;4166904;28;20034;-81
2024/01/09 08:37:25;;;;;;;4.53;2.25;;;-4.50;99.90;;;;;;4180447;28;20057;-80
2024/01/09 08:39:28;;;;;;;5.13;2.63;;;-3.80;99.90;;;;;;4182954;28;20049;-80
2024/01/09 08:41:44;;;;;;;5.90;2.10;;;-4.60;99.90;;;;;;4184283;28;20060;-79
2024/01/09 08:43:51;;;;;;;6.30;2.58;;;-5.40;99.90;;;;;;4186622;28;20129;-79
2024/01/09 08:45:56;;;;;;;4.47;1.90;;;-4.50;99.90;;;;;;4183297;28;20140;-79
2024/01/09 08:48:12;;;;;;;5.18;1.90;;;-2.80;99.90;;;;;;4185856;28;20073;-79
2024/01/09 08:50:17;;;;;;;5.18;2.22;;;-3.30;99.90;;;;;;4185716;28;20025;-79
2024/01/09 08:52:24;;;;;;;4.47;2.33;;;-3.00;99.90;;;;;;4185991;28;20097;-79
2024/01/09 08:54:26;;;;;;;5.88;2.65;;;-2.70;99.90;;;;;;4168240;28;20034;-79
2024/01/09 08:56:33;;;;;;;10.95;2.97;;;-3.10;99.90;;;;;;4185736;28;20041;-79
2024/01/09 08:58:34;;;;;;;6.25;3.03;;;-3.60;99.90;;;;;;4184505;28;20041;-79
2024/01/09 09:00:44;;;;;;;5.80;2.22;;;-2.50;99.90;;;;;;4185070;28;20094;-79
2024/01/09 09:02:48;;;;;;;4.35;2.00;;;-1.20;99.90;;;;;;4184025;28;20045;-79
2024/01/09 09:04:52;;;;;;;6.78;2.60;;;-2.10;99.90;;;;;;4183489;28;20073;-79
2024/01/09 09:06:55;;;;;;;5.00;2.00;;;-0.50;99.90;;;;;;4183427;28;20052;-79
2024/01/09 09:08:59;;;;;;;5.55;1.83;;;-1.30;99.90;;;;;;4181846;28;20041;-79
2024/01/09 09:11:00;;;;;;;5.13;2.25;;;0.50;99.90;;;;;;4179377;28;20041;-80
2024/01/09 09:13:03;;;;;;;11.20;3.08;;;1.00;99.90;;;;;;4177919;28;20045;-80
2024/01/09 09:15:04;;;;;;;5.90;2.03;;;0.40;99.90;;;;;;4174505;28;20434;-79
2024/01/09 09:17:08;;;;;;;4.97;1.90;;;1.00;99.90;;;;;;4174414;28;20070;-80
2024/01/09 09:19:10;;;;;;;5.82;2.00;;;2.80;99.90;;;;;;4172705;28;20490;-79
2024/01/09 09:21:12;;;;;;;4.68;2.08;;;3.70;99.90;;;;;;4171285;28;20038;-79
2024/01/09 09:23:13;;;;;;;4.82;1.98;;;4.60;99.90;;;;;;4167979;28;20120;-80
2024/01/09 09:25:14;;;;;;;5.50;2.10;;;5.30;99.90;;;;;;4168447;28;20046;-80
2024/01/09 09:27:16;;;;;;;6.28;2.42;;;5.50;99.90;;;;;;4150806;28;20049;-81
2024/01/09 09:29:16;;;;;;;6.10;2.03;;;6.50;99.90;;;;;;4168055;28;20045;-81
2024/01/09 09:31:17;;;;;;;7.35;2.40;;;5.90;99.90;;;;;;4167414;28;20045;-81
2024/01/09 09:33:18;;;;;;;3.90;2.33;;;6.50;99.90;;;;;;4149189;28;20054;-81
2024/01/09 09:35:18;;;;;;;3.67;1.88;;;7.20;99.90;;;;;;4167075;28;20112;-81
2024/01/09 09:37:20;;;;;;;4.38;2.50;;;7.30;99.90;;;;;;4150307;28;20561;-81
2024/01/09 09:39:20;;;;;;;4.70;2.03;;;7.60;99.90;;;;;;4167154;28;20049;-81
2024/01/09 09:41:21;;;;;;;3.85;1.77;;;7.90;99.90;;;;;;4167535;28;20151;-81
2024/01/09 09:43:26;;;;;;;3.63;1.98;;;8.10;99.90;;;;;;4167748;28;20072;-81
2024/01/09 09:45:29;;;;;;;5.32;1.80;;;8.20;99.90;;;;;;4167341;28;20045;-81
2024/01/09 09:47:31;;;;;;;2.55;1.27;;;8.30;99.90;;;;;;4168185;28;20049;-81
2024/01/09 09:49:37;;;;;;;2.78;1.42;;;8.40;99.90;;;;;;4149591;28;20049;-82
2024/01/09 09:51:39;;;;;;;2.28;1.38;;;8.70;99.90;;;;;;4167348;28;20046;-81
2024/01/09 09:53:40;;;;;;;3.13;1.45;;;8.30;99.90;;;;;;4166440;28;20054;-81
2024/01/09 09:55:41;;;;;;;3.10;1.63;;;8.70;99.90;;;;;;4167786;28;20120;-81
2024/01/09 09:57:44;;;;;;;2.78;1.50;;;8.00;99.90;;;;;;4167270;28;20109;-82
2024/01/09 09:59:46;;;;;;;3.13;1.25;;;7.80;99.90;;;;;;4149628;28;20061;-81
2024/01/09 10:01:47;;;;;;;3.72;1.45;;;7.60;99.90;;;;;;4150188;28;20045;-81
2024/01/09 10:04:02;;;;;;;3.47;1.88;;;7.80;99.90;;;;;;4167674;28;20053;-81
2024/01/09 10:06:05;;;;;;;3.20;1.40;;;7.00;99.90;;;;;;4167615;28;20083;-82
2024/01/09 10:08:11;;;;;;;2.92;1.45;;;6.40;99.90;;;;;;4167198;28;20080;-81
2024/01/09 10:10:13;;;;;;;1.90;0.95;;;6.10;99.90;;;;;;4165894;28;20049;-81
2024/01/09 10:12:14;;;;;;;3.28;1.30;;;6.60;99.90;;;;;;4167859;28;20113;-82
2024/01/09 10:14:15;;;;;;;4.53;1.58;;;6.40;99.90;;;;;;4167788;28;20492;-85
2024/01/09 10:16:16;;;;;;;1.88;1.08;;;5.70;99.90;;;;;;4147366;28;20054;-80
2024/01/09 10:18:18;;;;;;;3.35;1.13;;;4.60;99.90;;;;;;4167104;28;20041;-80
2024/01/09 10:20:19;;;;;;;2.33;1.20;;;5.70;99.90;;;;;;4167322;28;20049;-80
2024/01/09 10:22:20;;;;;;;3.45;1.23;;;5.60;99.90;;;;;;4167356;28;20203;-80
2024/01/09 10:24:21;;;;;;;2.53;1.30;;;5.20;99.90;;;;;;4167992;28;20120;-81
2024/01/09 10:26:23;;;;;;;2.45;1.15;;;4.90;99.90;;;;;;4167844;28;20444;-80
2024/01/09 10:28:24;;;;;;;1.85;1.00;;;4.90;99.90;;;;;;4167453;28;20049;-80
2024/01/09 10:30:26;;;;;;;1.95;0.98;;;5.20;99.90;;;;;;4151012;28;20053;-80
2024/01/09 10:32:28;;;;;;;1.65;1.00;;;4.00;99.90;;;;;;4167957;28;20045;-81
2024/01/09 10:34:31;;;;;;;2.67;1.30;;;5.00;99.90;;;;;;4167745;28;20506;-80
2024/01/09 10:36:31;;;;;;;1.98;1.15;;;5.30;99.90;;;;;;4149405;28;20580;-80
2024/01/09 10:38:33;;;;;;;3.63;1.40;;;4.00;99.90;;;;;;4167765;28;20104;-81
2024/01/09 10:40:35;;;;;;;1.80;1.10;;;5.00;99.90;;;;;;4170908;28;20423;-79
2024/01/09 10:42:45;;;;;;;1.90;0.90;;;3.90;99.90;;;;;;4171494;28;20032;-80
2024/01/09 10:44:49;;;;;;;2.78;1.25;;;4.60;99.90;;;;;;4170291;28;20490;-81
2024/01/09 10:46:50;;;;;;;2.35;1.30;;;4.40;99.90;;;;;;4171050;28;20053;-81
2024/01/09 10:48:53;;;;;;;3.53;1.40;;;4.80;99.90;;;;;;4136897;28;20070;-80
2024/01/09 10:50:55;;;;;;;4.05;1.35;;;4.80;99.90;;;;;;4158148;28;20482;-81
2024/01/09 10:52:58;;;;;;;1.80;1.00;;;5.20;99.90;;;;;;4170447;28;20051;-81
2024/01/09 10:54:59;;;;;;;3.30;1.60;;;5.10;99.90;;;;;;4169623;28;20389;-81
2024/01/09 10:57:02;;;;;;;2.88;1.20;;;4.70;99.90;;;;;;4168877;28;20496;-81
2024/01/09 10:59:05;;;;;;;3.28;1.40;;;4.00;99.90;;;;;;4170002;28;20057;-80
2024/01/09 11:01:06;;;;;;;2.85;1.90;;;3.90;99.90;;;;;;4150914;28;20053;-81
2024/01/09 11:03:06;;;;;;;2.63;1.40;;;3.90;99.90;;;;;;4166960;28;20041;-81
2024/01/09 11:05:10;;;;;;;2.15;1.17;;;5.10;99.90;;;;;;4167337;28;20041;-81
2024/01/09 11:07:15;;;;;;;3.42;1.40;;;3.90;99.90;;;;;;4167743;28;20073;-81
2024/01/09 11:09:20;;;;;;;3.78;1.23;;;4.80;99.90;;;;;;4166948;28;20034;-81
2024/01/09 11:11:22;;;;;;;2.78;1.33;;;4.00;99.90;;;;;;4167366;28;20033;-81
2024/01/09 11:13:24;;;;;;;2.22;1.10;;;4.70;99.90;;;;;;4167250;28;20544;-81
2024/01/09 11:15:37;;;;;;;3.10;1.45;;;4.50;99.90;;;;;;4166855;28;20069;-81
2024/01/09 11:17:40;;;;;;;4.13;1.48;;;5.40;99.90;;;;;;4166581;28;20509;-81
2024/01/09 11:19:41;;;;;;;2.22;1.50;;;5.50;99.90;;;;;;4147702;28;20053;-81
2024/01/09 11:21:43;;;;;;;2.35;1.15;;;5.90;99.90;;;;;;4151054;28;20121;-81
2024/01/09 11:23:43;;;;;;;4.22;1.25;;;5.70;99.90;;;;;;4150176;28;20129;-81
2024/01/09 11:25:51;;;;;;;2.53;1.17;;;4.50;99.90;;;;;;4151314;28;20045;-81
2024/01/09 11:27:53;;;;;;;2.75;1.50;;;4.50;99.90;;;;;;4150535;28;20526;-81
2024/01/09 11:29:54;;;;;;;3.42;1.35;;;5.70;99.90;;;;;;4149700;28;20083;-81
2024/01/09 11:31:55;;;;;;;2.88;1.50;;;5.80;99.90;;;;;;4155040;28;20041;-81
2024/01/09 11:33:56;;;;;;;3.53;1.65;;;5.50;99.90;;;;;;4150322;28;20042;-81
2024/01/09 11:36:04;;;;;;;2.30;1.25;;;4.80;99.90;;;;;;4166948;28;20046;-81
2024/01/09 11:38:09;;;;;;;2.33;1.20;;;4.90;99.90;;;;;;4148424;28;20041;-80
2024/01/09 11:40:12;;;;;;;4.38;1.50;;;5.10;99.90;;;;;;4165425;28;20563;-81
2024/01/09 11:42:13;;;;;;;4.65;1.30;;;5.50;99.90;;;;;;4165658;28;20053;-81
2024/01/09 11:44:15;;;;;;;2.45;1.30;;;5.70;99.90;;;;;;4165501;28;20041;-80
2024/01/09 11:46:17;;;;;;;3.50;1.48;;;5.50;99.90;;;;;;4164888;28;20052;-81
2024/01/09 11:48:18;;;;;;;2.97;1.25;;;5.10;99.90;;;;;;4163869;28;20481;-81
2024/01/09 11:50:19;;;;;;;2.90;1.30;;;5.70;99.90;;;;;;4164345;28;20053;-81
2024/01/09 11:52:21;;;;;;;5.38;2.00;;;5.60;99.90;;;;;;4161769;28;20045;-81
2024/01/09 11:54:22;;;;;;;4.05;2.33;;;5.40;99.90;;;;;;4164351;28;20034;-81
2024/01/09 11:56:23;;;;;;;5.43;2.53;;;5.90;99.90;;;;;;4146437;28;20533;-81
2024/01/09 11:58:24;;;;;;;5.22;2.35;;;4.70;99.90;;;;;;4160702;28;20045;-81